Terminal Aerodrome Forecast
Issued by NWS

Home | Current Version | Previous Version | Text Only | Print | Product List | Glossary Off
Versions: 1 2 3 4 5 6 7 8 9 10 11 12 13 14 15 16

000
FTUS43 KMPX 130500 RRA
TAFRWF
TAF
KRWF 130541Z 1306/1406 02007KT P6SM SCT025
     FM131100 35015G22KT P6SM BKN025
     FM131800 35019G28KT P6SM BKN035
     FM140000 35017G25KT P6SM BKN045=

USA.gov is the U.S. government's official web portal to all federal, state and local government web resources and services.